sensor_id;sensor_type;location;lat;lon;timestamp;temperature;humidity
55634;DHT22;41504;53.162;6.788;2023-06-05T00:02:19;13.30;76.40
55634;DHT22;41504;53.162;6.788;2023-06-05T00:04:44;13.30;76.40
55634;DHT22;41504;53.162;6.788;2023-06-05T00:07:10;13.30;76.50
55634;DHT22;41504;53.162;6.788;2023-06-05T00:09:36;13.30;76.50
55634;DHT22;41504;53.162;6.788;2023-06-05T00:12:03;13.30;76.70
55634;DHT22;41504;53.162;6.788;2023-06-05T00:14:28;13.30;76.90
55634;DHT22;41504;53.162;6.788;2023-06-05T00:16:54;13.20;76.90
55634;DHT22;41504;53.162;6.788;2023-06-05T00:19:21;13.20;76.90
55634;DHT22;41504;53.162;6.788;2023-06-05T00:21:47;13.30;76.90
55634;DHT22;41504;53.162;6.788;2023-06-05T00:24:16;13.30;76.90
55634;DHT22;41504;53.162;6.788;2023-06-05T00:26:41;13.30;77.00
55634;DHT22;41504;53.162;6.788;2023-06-05T00:29:07;13.30;76.90
55634;DHT22;41504;53.162;6.788;2023-06-05T00:31:33;13.30;77.00
55634;DHT22;41504;53.162;6.788;2023-06-05T00:33:59;13.20;77.00
55634;DHT22;41504;53.162;6.788;2023-06-05T00:36:24;13.20;77.10
55634;DHT22;41504;53.162;6.788;2023-06-05T00:38:50;13.20;77.30
55634;DHT22;41504;53.162;6.788;2023-06-05T00:41:16;13.20;77.30
55634;DHT22;41504;53.162;6.788;2023-06-05T00:43:42;13.10;78.00
55634;DHT22;41504;53.162;6.788;2023-06-05T00:46:08;13.10;77.50
55634;DHT22;41504;53.162;6.788;2023-06-05T00:48:34;13.10;77.60
55634;DHT22;41504;53.162;6.788;2023-06-05T00:51:00;13.10;77.80
55634;DHT22;41504;53.162;6.788;2023-06-05T00:53:27;13.10;77.90
55634;DHT22;41504;53.162;6.788;2023-06-05T00:55:53;13.00;77.90
55634;DHT22;41504;53.162;6.788;2023-06-05T00:58:20;13.10;78.00
55634;DHT22;41504;53.162;6.788;2023-06-05T01:00:45;13.00;78.00
55634;DHT22;41504;53.162;6.788;2023-06-05T01:03:15;13.00;78.00
55634;DHT22;41504;53.162;6.788;2023-06-05T01:05:42;13.00;77.90
55634;DHT22;41504;53.162;6.788;2023-06-05T01:08:09;13.00;78.10
55634;DHT22;41504;53.162;6.788;2023-06-05T01:10:37;12.90;78.30
55634;DHT22;41504;53.162;6.788;2023-06-05T01:13:21;12.90;78.80
55634;DHT22;41504;53.162;6.788;2023-06-05T01:15:49;13.00;78.20
55634;DHT22;41504;53.162;6.788;2023-06-05T01:18:16;12.90;78.30
55634;DHT22;41504;53.162;6.788;2023-06-05T01:20:44;12.90;78.20
55634;DHT22;41504;53.162;6.788;2023-06-05T01:23:10;12.90;78.30
55634;DHT22;41504;53.162;6.788;2023-06-05T01:25:36;13.00;78.30
55634;DHT22;41504;53.162;6.788;2023-06-05T01:28:18;13.00;78.30
55634;DHT22;41504;53.162;6.788;2023-06-05T01:31:09;13.00;78.30
55634;DHT22;41504;53.162;6.788;2023-06-05T01:33:45;13.00;78.30
55634;DHT22;41504;53.162;6.788;2023-06-05T01:36:15;13.00;78.30
55634;DHT22;41504;53.162;6.788;2023-06-05T01:38:43;13.00;78.30
55634;DHT22;41504;53.162;6.788;2023-06-05T01:41:11;13.00;78.20
55634;DHT22;41504;53.162;6.788;2023-06-05T01:43:38;13.00;78.20
55634;DHT22;41504;53.162;6.788;2023-06-05T01:46:05;13.00;78.30
55634;DHT22;41504;53.162;6.788;2023-06-05T01:48:35;13.00;78.40
55634;DHT22;41504;53.162;6.788;2023-06-05T01:51:01;13.00;78.50
55634;DHT22;41504;53.162;6.788;2023-06-05T01:53:28;13.00;78.60
55634;DHT22;41504;53.162;6.788;2023-06-05T01:55:55;13.00;78.70
55634;DHT22;41504;53.162;6.788;2023-06-05T01:58:24;12.90;78.70
55634;DHT22;41504;53.162;6.788;2023-06-05T02:00:50;12.90;78.60
55634;DHT22;41504;53.162;6.788;2023-06-05T02:03:18;13.00;78.60
55634;DHT22;41504;53.162;6.788;2023-06-05T02:05:44;12.90;78.60
55634;DHT22;41504;53.162;6.788;2023-06-05T02:08:10;12.90;78.50
55634;DHT22;41504;53.162;6.788;2023-06-05T02:10:37;12.90;78.50
55634;DHT22;41504;53.162;6.788;2023-06-05T02:13:09;12.90;78.50
55634;DHT22;41504;53.162;6.788;2023-06-05T02:15:35;12.90;78.60
55634;DHT22;41504;53.162;6.788;2023-06-05T02:18:02;12.90;78.50
55634;DHT22;41504;53.162;6.788;2023-06-05T02:20:30;12.90;78.40
55634;DHT22;41504;53.162;6.788;2023-06-05T02:22:57;12.90;78.30
55634;DHT22;41504;53.162;6.788;2023-06-05T02:25:23;12.90;78.40
55634;DHT22;41504;53.162;6.788;2023-06-05T02:27:53;12.80;78.40
55634;DHT22;41504;53.162;6.788;2023-06-05T02:30:19;12.80;78.50
55634;DHT22;41504;53.162;6.788;2023-06-05T02:32:45;12.80;78.50
55634;DHT22;41504;53.162;6.788;2023-06-05T02:35:11;12.80;78.60
55634;DHT22;41504;53.162;6.788;2023-06-05T02:37:38;12.80;78.80
55634;DHT22;41504;53.162;6.788;2023-06-05T02:40:10;12.70;78.80
55634;DHT22;41504;53.162;6.788;2023-06-05T02:42:37;12.80;78.90
55634;DHT22;41504;53.162;6.788;2023-06-05T02:45:03;12.70;78.80
55634;DHT22;41504;53.162;6.788;2023-06-05T02:47:30;12.70;78.80
55634;DHT22;41504;53.162;6.788;2023-06-05T02:49:57;12.70;79.00
55634;DHT22;41504;53.162;6.788;2023-06-05T02:52:23;12.80;79.10
55634;DHT22;41504;53.162;6.788;2023-06-05T02:54:53;12.70;79.10
55634;DHT22;41504;53.162;6.788;2023-06-05T02:57:19;12.70;79.10
55634;DHT22;41504;53.162;6.788;2023-06-05T02:59:44;12.70;79.20
55634;DHT22;41504;53.162;6.788;2023-06-05T03:02:10;12.70;79.20
55634;DHT22;41504;53.162;6.788;2023-06-05T03:04:37;12.70;79.20
55634;DHT22;41504;53.162;6.788;2023-06-05T03:07:06;12.70;79.30
55634;DHT22;41504;53.162;6.788;2023-06-05T03:09:34;12.60;79.40
55634;DHT22;41504;53.162;6.788;2023-06-05T03:11:59;12.70;79.40
55634;DHT22;41504;53.162;6.788;2023-06-05T03:14:25;12.60;79.50
55634;DHT22;41504;53.162;6.788;2023-06-05T03:16:56;12.50;79.40
55634;DHT22;41504;53.162;6.788;2023-06-05T03:19:24;12.60;79.70
55634;DHT22;41504;53.162;6.788;2023-06-05T03:21:50;12.50;79.80
55634;DHT22;41504;53.162;6.788;2023-06-05T03:24:16;12.50;79.70
55634;DHT22;41504;53.162;6.788;2023-06-05T03:26:43;12.50;79.90
55634;DHT22;41504;53.162;6.788;2023-06-05T03:29:11;12.50;80.00
55634;DHT22;41504;53.162;6.788;2023-06-05T03:31:37;12.40;80.00
55634;DHT22;41504;53.162;6.788;2023-06-05T03:34:03;12.40;79.90
55634;DHT22;41504;53.162;6.788;2023-06-05T03:36:30;12.40;80.00
55634;DHT22;41504;53.162;6.788;2023-06-05T03:38:58;12.40;79.90
55634;DHT22;41504;53.162;6.788;2023-06-05T03:41:25;12.40;80.20
55634;DHT22;41504;53.162;6.788;2023-06-05T03:43:51;12.40;80.20
55634;DHT22;41504;53.162;6.788;2023-06-05T03:46:17;12.40;80.30
55634;DHT22;41504;53.162;6.788;2023-06-05T03:48:46;12.40;80.50
55634;DHT22;41504;53.162;6.788;2023-06-05T03:51:14;12.50;80.40
55634;DHT22;41504;53.162;6.788;2023-06-05T03:53:44;12.50;80.30
55634;DHT22;41504;53.162;6.788;2023-06-05T03:56:10;12.40;80.10
55634;DHT22;41504;53.162;6.788;2023-06-05T03:58:37;12.50;80.20
55634;DHT22;41504;53.162;6.788;2023-06-05T04:01:06;12.50;80.10
55634;DHT22;41504;53.162;6.788;2023-06-05T04:03:35;12.50;80.60
55634;DHT22;41504;53.162;6.788;2023-06-05T04:06:03;12.50;80.10
55634;DHT22;41504;53.162;6.788;2023-06-05T04:08:30;12.50;80.10
55634;DHT22;41504;53.162;6.788;2023-06-05T04:10:56;12.60;80.20
55634;DHT22;41504;53.162;6.788;2023-06-05T04:13:22;12.60;80.00
55634;DHT22;41504;53.162;6.788;2023-06-05T04:15:47;12.60;79.80
55634;DHT22;41504;53.162;6.788;2023-06-05T04:18:14;12.60;79.80
55634;DHT22;41504;53.162;6.788;2023-06-05T04:20:40;12.60;79.80
55634;DHT22;41504;53.162;6.788;2023-06-05T04:23:06;12.60;79.90
55634;DHT22;41504;53.162;6.788;2023-06-05T04:25:32;12.60;79.80
55634;DHT22;41504;53.162;6.788;2023-06-05T04:27:57;12.70;79.80
55634;DHT22;41504;53.162;6.788;2023-06-05T04:30:23;12.70;79.70
55634;DHT22;41504;53.162;6.788;2023-06-05T04:32:50;12.70;79.50
55634;DHT22;41504;53.162;6.788;2023-06-05T04:35:21;12.70;79.60
55634;DHT22;41504;53.162;6.788;2023-06-05T04:37:47;12.70;79.70
55634;DHT22;41504;53.162;6.788;2023-06-05T04:40:13;12.70;79.70
55634;DHT22;41504;53.162;6.788;2023-06-05T04:42:39;12.80;79.70
55634;DHT22;41504;53.162;6.788;2023-06-05T04:45:06;12.80;79.50
55634;DHT22;41504;53.162;6.788;2023-06-05T04:47:35;12.80;79.60
55634;DHT22;41504;53.162;6.788;2023-06-05T04:50:03;12.90;79.60
55634;DHT22;41504;53.162;6.788;2023-06-05T04:52:33;12.90;79.50
55634;DHT22;41504;53.162;6.788;2023-06-05T04:55:06;13.00;79.40
55634;DHT22;41504;53.162;6.788;2023-06-05T04:57:32;13.10;79.30
55634;DHT22;41504;53.162;6.788;2023-06-05T04:59:58;13.10;79.10
55634;DHT22;41504;53.162;6.788;2023-06-05T05:02:26;13.20;79.00
55634;DHT22;41504;53.162;6.788;2023-06-05T05:04:52;13.30;78.80
55634;DHT22;41504;53.162;6.788;2023-06-05T05:07:17;13.40;78.60
55634;DHT22;41504;53.162;6.788;2023-06-05T05:09:44;13.40;78.20
55634;DHT22;41504;53.162;6.788;2023-06-05T05:12:10;13.40;78.30
55634;DHT22;41504;53.162;6.788;2023-06-05T05:14:37;13.40;78.20
55634;DHT22;41504;53.162;6.788;2023-06-05T05:17:06;13.40;78.10
55634;DHT22;41504;53.162;6.788;2023-06-05T05:19:32;13.50;78.60
55634;DHT22;41504;53.162;6.788;2023-06-05T05:21:57;13.50;78.00
55634;DHT22;41504;53.162;6.788;2023-06-05T05:24:23;13.50;77.80
55634;DHT22;41504;53.162;6.788;2023-06-05T05:26:51;13.60;77.70
55634;DHT22;41504;53.162;6.788;2023-06-05T05:29:17;13.60;77.60
55634;DHT22;41504;53.162;6.788;2023-06-05T05:31:44;13.50;77.60
55634;DHT22;41504;53.162;6.788;2023-06-05T05:34:10;13.60;77.80
55634;DHT22;41504;53.162;6.788;2023-06-05T05:36:36;13.70;77.70
55634;DHT22;41504;53.162;6.788;2023-06-05T05:39:07;13.70;77.50
55634;DHT22;41504;53.162;6.788;2023-06-05T05:41:36;13.80;77.20
55634;DHT22;41504;53.162;6.788;2023-06-05T05:44:01;13.70;77.20
55634;DHT22;41504;53.162;6.788;2023-06-05T05:46:27;13.80;76.90
55634;DHT22;41504;53.162;6.788;2023-06-05T05:48:53;13.70;77.00
55634;DHT22;41504;53.162;6.788;2023-06-05T05:51:20;13.70;76.70
55634;DHT22;41504;53.162;6.788;2023-06-05T05:53:46;13.60;77.00
55634;DHT22;41504;53.162;6.788;2023-06-05T05:56:12;13.60;77.40
55634;DHT22;41504;53.162;6.788;2023-06-05T05:58:43;13.60;77.40
55634;DHT22;41504;53.162;6.788;2023-06-05T06:01:10;13.70;77.40
55634;DHT22;41504;53.162;6.788;2023-06-05T06:03:40;13.70;77.50
55634;DHT22;41504;53.162;6.788;2023-06-05T06:06:05;13.80;77.20
55634;DHT22;41504;53.162;6.788;2023-06-05T06:08:34;13.90;76.90
55634;DHT22;41504;53.162;6.788;2023-06-05T06:11:00;13.90;76.80
55634;DHT22;41504;53.162;6.788;2023-06-05T06:13:26;14.10;76.60
55634;DHT22;41504;53.162;6.788;2023-06-05T06:15:53;14.20;76.30
55634;DHT22;41504;53.162;6.788;2023-06-05T06:18:18;14.40;76.00
55634;DHT22;41504;53.162;6.788;2023-06-05T06:20:44;14.50;75.20
55634;DHT22;41504;53.162;6.788;2023-06-05T06:23:10;14.50;75.10
55634;DHT22;41504;53.162;6.788;2023-06-05T06:25:36;14.50;75.10
55634;DHT22;41504;53.162;6.788;2023-06-05T06:28:03;14.40;75.00
55634;DHT22;41504;53.162;6.788;2023-06-05T06:30:29;14.30;75.60
55634;DHT22;41504;53.162;6.788;2023-06-05T06:32:56;14.40;75.60
55634;DHT22;41504;53.162;6.788;2023-06-05T06:35:26;14.40;75.20
55634;DHT22;41504;53.162;6.788;2023-06-05T06:37:53;14.40;75.30
55634;DHT22;41504;53.162;6.788;2023-06-05T06:40:20;14.50;75.10
55634;DHT22;41504;53.162;6.788;2023-06-05T06:42:46;14.60;74.70
55634;DHT22;41504;53.162;6.788;2023-06-05T06:45:12;14.40;74.10
55634;DHT22;41504;53.162;6.788;2023-06-05T06:47:41;14.30;74.90
55634;DHT22;41504;53.162;6.788;2023-06-05T06:50:07;14.30;75.40
55634;DHT22;41504;53.162;6.788;2023-06-05T06:52:36;14.40;75.40
55634;DHT22;41504;53.162;6.788;2023-06-05T06:55:02;14.50;75.20
55634;DHT22;41504;53.162;6.788;2023-06-05T06:57:28;14.50;74.90
55634;DHT22;41504;53.162;6.788;2023-06-05T06:59:54;14.40;75.10
55634;DHT22;41504;53.162;6.788;2023-06-05T07:02:22;14.40;75.10
55634;DHT22;41504;53.162;6.788;2023-06-05T07:04:48;14.30;75.20
55634;DHT22;41504;53.162;6.788;2023-06-05T07:07:18;14.30;75.70
55634;DHT22;41504;53.162;6.788;2023-06-05T07:09:45;14.40;75.40
55634;DHT22;41504;53.162;6.788;2023-06-05T07:12:12;14.40;75.20
55634;DHT22;41504;53.162;6.788;2023-06-05T07:14:38;14.50;75.30
55634;DHT22;41504;53.162;6.788;2023-06-05T07:17:04;14.50;75.20
55634;DHT22;41504;53.162;6.788;2023-06-05T07:19:31;14.50;74.80
55634;DHT22;41504;53.162;6.788;2023-06-05T07:21:58;14.50;74.70
55634;DHT22;41504;53.162;6.788;2023-06-05T07:24:25;14.40;75.20
55634;DHT22;41504;53.162;6.788;2023-06-05T07:26:54;14.40;75.30
55634;DHT22;41504;53.162;6.788;2023-06-05T07:29:21;14.60;74.70
55634;DHT22;41504;53.162;6.788;2023-06-05T07:31:52;14.60;74.60
55634;DHT22;41504;53.162;6.788;2023-06-05T07:34:25;14.80;74.30
55634;DHT22;41504;53.162;6.788;2023-06-05T07:36:51;14.90;73.80
55634;DHT22;41504;53.162;6.788;2023-06-05T07:39:21;15.10;74.00
55634;DHT22;41504;53.162;6.788;2023-06-05T07:41:47;15.30;73.30
55634;DHT22;41504;53.162;6.788;2023-06-05T07:44:15;15.40;73.00
55634;DHT22;41504;53.162;6.788;2023-06-05T07:46:45;15.50;72.70
55634;DHT22;41504;53.162;6.788;2023-06-05T07:49:11;15.60;71.20
55634;DHT22;41504;53.162;6.788;2023-06-05T07:51:37;15.50;70.90
55634;DHT22;41504;53.162;6.788;2023-06-05T07:54:08;15.30;71.80
55634;DHT22;41504;53.162;6.788;2023-06-05T07:56:37;15.30;72.30
55634;DHT22;41504;53.162;6.788;2023-06-05T07:59:08;15.30;72.40
55634;DHT22;41504;53.162;6.788;2023-06-05T08:01:39;15.40;72.30
55634;DHT22;41504;53.162;6.788;2023-06-05T08:04:06;15.50;72.10
55634;DHT22;41504;53.162;6.788;2023-06-05T08:06:41;15.60;71.90
55634;DHT22;41504;53.162;6.788;2023-06-05T08:09:09;15.80;71.60
55634;DHT22;41504;53.162;6.788;2023-06-05T08:11:38;15.90;71.10
55634;DHT22;41504;53.162;6.788;2023-06-05T08:14:10;15.90;70.80
55634;DHT22;41504;53.162;6.788;2023-06-05T08:16:36;15.90;69.70
55634;DHT22;41504;53.162;6.788;2023-06-05T08:19:02;15.80;70.60
55634;DHT22;41504;53.162;6.788;2023-06-05T08:21:28;15.80;70.80
55634;DHT22;41504;53.162;6.788;2023-06-05T08:23:54;15.70;71.00
55634;DHT22;41504;53.162;6.788;2023-06-05T08:26:20;15.80;70.90
55634;DHT22;41504;53.162;6.788;2023-06-05T08:28:48;15.80;71.10
55634;DHT22;41504;53.162;6.788;2023-06-05T08:31:14;15.80;70.80
55634;DHT22;41504;53.162;6.788;2023-06-05T08:33:42;15.80;70.50
55634;DHT22;41504;53.162;6.788;2023-06-05T08:36:07;15.90;69.40
55634;DHT22;41504;53.162;6.788;2023-06-05T08:38:34;15.70;69.70
55634;DHT22;41504;53.162;6.788;2023-06-05T08:41:04;15.70;69.70
55634;DHT22;41504;53.162;6.788;2023-06-05T08:43:31;15.60;69.90
55634;DHT22;41504;53.162;6.788;2023-06-05T08:45:57;15.60;70.60
55634;DHT22;41504;53.162;6.788;2023-06-05T08:48:27;15.80;69.70
55634;DHT22;41504;53.162;6.788;2023-06-05T08:50:59;15.80;69.90
55634;DHT22;41504;53.162;6.788;2023-06-05T08:53:31;16.00;69.90
55634;DHT22;41504;53.162;6.788;2023-06-05T08:55:58;16.20;69.50
55634;DHT22;41504;53.162;6.788;2023-06-05T08:58:24;16.30;69.30
55634;DHT22;41504;53.162;6.788;2023-06-05T09:00:50;16.40;67.50
55634;DHT22;41504;53.162;6.788;2023-06-05T09:03:16;16.40;66.60
55634;DHT22;41504;53.162;6.788;2023-06-05T09:05:46;16.30;67.20
55634;DHT22;41504;53.162;6.788;2023-06-05T09:08:13;16.10;67.50
55634;DHT22;41504;53.162;6.788;2023-06-05T09:10:39;16.10;68.20
55634;DHT22;41504;53.162;6.788;2023-06-05T09:13:05;16.20;68.30
55634;DHT22;41504;53.162;6.788;2023-06-05T09:15:33;16.40;67.90
55634;DHT22;41504;53.162;6.788;2023-06-05T09:18:10;16.40;67.10
55634;DHT22;41504;53.162;6.788;2023-06-05T09:20:40;16.30;67.10
55634;DHT22;41504;53.162;6.788;2023-06-05T09:23:26;16.40;67.60
55634;DHT22;41504;53.162;6.788;2023-06-05T09:25:53;16.60;68.00
55634;DHT22;41504;53.162;6.788;2023-06-05T09:28:19;16.70;68.10
55634;DHT22;41504;53.162;6.788;2023-06-05T09:31:03;16.90;67.40
55634;DHT22;41504;53.162;6.788;2023-06-05T09:33:30;17.10;66.80
55634;DHT22;41504;53.162;6.788;2023-06-05T09:38:38;17.30;66.70
55634;DHT22;41504;53.162;6.788;2023-06-05T09:41:14;17.40;65.60
55634;DHT22;41504;53.162;6.788;2023-06-05T09:43:46;17.30;65.80
55634;DHT22;41504;53.162;6.788;2023-06-05T09:46:16;17.40;66.00
55634;DHT22;41504;53.162;6.788;2023-06-05T09:48:43;17.40;64.80
55634;DHT22;41504;53.162;6.788;2023-06-05T09:51:16;17.40;64.90
55634;DHT22;41504;53.162;6.788;2023-06-05T09:53:48;17.30;65.60
55634;DHT22;41504;53.162;6.788;2023-06-05T09:56:16;17.40;65.00
55634;DHT22;41504;53.162;6.788;2023-06-05T09:58:48;17.30;65.50
55634;DHT22;41504;53.162;6.788;2023-06-05T10:01:19;17.50;65.40
55634;DHT22;41504;53.162;6.788;2023-06-05T10:04:04;17.50;64.30
55634;DHT22;41504;53.162;6.788;2023-06-05T10:06:32;17.50;63.50
55634;DHT22;41504;53.162;6.788;2023-06-05T10:08:58;17.30;64.30
55634;DHT22;41504;53.162;6.788;2023-06-05T10:11:26;17.30;64.60
55634;DHT22;41504;53.162;6.788;2023-06-05T10:13:53;17.30;64.90
55634;DHT22;41504;53.162;6.788;2023-06-05T10:16:19;17.30;64.10
55634;DHT22;41504;53.162;6.788;2023-06-05T10:18:49;17.30;64.40
55634;DHT22;41504;53.162;6.788;2023-06-05T10:21:16;17.30;64.10
55634;DHT22;41504;53.162;6.788;2023-06-05T10:23:48;17.30;64.70
55634;DHT22;41504;53.162;6.788;2023-06-05T10:26:19;17.50;64.90
55634;DHT22;41504;53.162;6.788;2023-06-05T10:29:14;17.70;65.00
55634;DHT22;41504;53.162;6.788;2023-06-05T10:31:50;17.90;64.30
55634;DHT22;41504;53.162;6.788;2023-06-05T10:39:39;18.10;62.00
55634;DHT22;41504;53.162;6.788;2023-06-05T10:42:05;18.00;62.90
55634;DHT22;41504;53.162;6.788;2023-06-05T10:44:42;18.00;63.60
55634;DHT22;41504;53.162;6.788;2023-06-05T10:52:49;18.00;61.80
55634;DHT22;41504;53.162;6.788;2023-06-05T10:55:15;18.00;62.40
55634;DHT22;41504;53.162;6.788;2023-06-05T11:00:37;18.10;63.30
55634;DHT22;41504;53.162;6.788;2023-06-05T11:03:04;18.30;63.30
55634;DHT22;41504;53.162;6.788;2023-06-05T11:05:31;18.60;63.00
55634;DHT22;41504;53.162;6.788;2023-06-05T11:08:17;18.70;62.70
55634;DHT22;41504;53.162;6.788;2023-06-05T11:11:05;18.90;62.60
55634;DHT22;41504;53.162;6.788;2023-06-05T11:13:51;19.00;62.20
55634;DHT22;41504;53.162;6.788;2023-06-05T11:16:32;19.10;62.20
55634;DHT22;41504;53.162;6.788;2023-06-05T11:22:06;19.40;61.00
55634;DHT22;41504;53.162;6.788;2023-06-05T11:24:36;19.40;61.80
55634;DHT22;41504;53.162;6.788;2023-06-05T11:27:04;19.50;61.50
55634;DHT22;41504;53.162;6.788;2023-06-05T11:29:34;19.50;61.40
55634;DHT22;41504;53.162;6.788;2023-06-05T11:32:00;19.60;61.20
55634;DHT22;41504;53.162;6.788;2023-06-05T11:34:35;19.70;60.40
55634;DHT22;41504;53.162;6.788;2023-06-05T11:37:17;19.50;60.60
55634;DHT22;41504;53.162;6.788;2023-06-05T11:39:47;19.50;61.40
55634;DHT22;41504;53.162;6.788;2023-06-05T11:42:21;19.50;61.70
55634;DHT22;41504;53.162;6.788;2023-06-05T11:44:47;19.70;61.30
55634;DHT22;41504;53.162;6.788;2023-06-05T11:47:27;19.70;61.00
55634;DHT22;41504;53.162;6.788;2023-06-05T11:50:10;19.90;60.70
55634;DHT22;41504;53.162;6.788;2023-06-05T11:52:36;20.10;60.50
55634;DHT22;41504;53.162;6.788;2023-06-05T11:55:12;20.10;60.60
55634;DHT22;41504;53.162;6.788;2023-06-05T11:57:44;20.30;60.20
55634;DHT22;41504;53.162;6.788;2023-06-05T12:00:10;20.30;60.00
55634;DHT22;41504;53.162;6.788;2023-06-05T12:02:42;20.40;59.80
55634;DHT22;41504;53.162;6.788;2023-06-05T12:05:11;20.50;59.60
55634;DHT22;41504;53.162;6.788;2023-06-05T12:07:37;20.50;59.30
55634;DHT22;41504;53.162;6.788;2023-06-05T12:10:09;20.60;58.80
55634;DHT22;41504;53.162;6.788;2023-06-05T12:12:51;20.60;59.00
55634;DHT22;41504;53.162;6.788;2023-06-05T12:15:18;20.60;58.70
55634;DHT22;41504;53.162;6.788;2023-06-05T12:17:55;20.60;59.10
55634;DHT22;41504;53.162;6.788;2023-06-05T12:20:22;20.60;58.80
55634;DHT22;41504;53.162;6.788;2023-06-05T12:22:48;20.70;58.90
55634;DHT22;41504;53.162;6.788;2023-06-05T12:25:19;20.70;58.60
55634;DHT22;41504;53.162;6.788;2023-06-05T12:27:45;20.80;58.70
55634;DHT22;41504;53.162;6.788;2023-06-05T12:30:14;20.90;58.50
55634;DHT22;41504;53.162;6.788;2023-06-05T12:32:43;20.90;58.10
55634;DHT22;41504;53.162;6.788;2023-06-05T12:35:19;20.80;57.40
55634;DHT22;41504;53.162;6.788;2023-06-05T12:37:47;20.70;56.90
55634;DHT22;41504;53.162;6.788;2023-06-05T12:40:13;20.50;57.10
55634;DHT22;41504;53.162;6.788;2023-06-05T12:42:41;20.10;57.90
55634;DHT22;41504;53.162;6.788;2023-06-05T12:45:12;19.80;58.80
55634;DHT22;41504;53.162;6.788;2023-06-05T12:47:38;19.70;59.50
55634;DHT22;41504;53.162;6.788;2023-06-05T12:50:11;19.70;59.20
55634;DHT22;41504;53.162;6.788;2023-06-05T12:52:42;19.80;59.30
55634;DHT22;41504;53.162;6.788;2023-06-05T12:55:11;19.80;59.60
55634;DHT22;41504;53.162;6.788;2023-06-05T12:57:37;19.90;59.60
55634;DHT22;41504;53.162;6.788;2023-06-05T13:00:04;20.00;59.40
55634;DHT22;41504;53.162;6.788;2023-06-05T13:02:41;20.10;58.60
55634;DHT22;41504;53.162;6.788;2023-06-05T13:05:09;20.10;59.10
55634;DHT22;41504;53.162;6.788;2023-06-05T13:07:35;20.10;58.50
55634;DHT22;41504;53.162;6.788;2023-06-05T13:10:04;20.10;58.40
55634;DHT22;41504;53.162;6.788;2023-06-05T13:12:30;20.10;58.60
55634;DHT22;41504;53.162;6.788;2023-06-05T13:14:56;20.20;59.20
55634;DHT22;41504;53.162;6.788;2023-06-05T13:17:22;20.40;58.90
55634;DHT22;41504;53.162;6.788;2023-06-05T13:19:51;20.40;57.40
55634;DHT22;41504;53.162;6.788;2023-06-05T13:22:16;20.30;57.60
55634;DHT22;41504;53.162;6.788;2023-06-05T13:24:42;19.90;58.40
55634;DHT22;41504;53.162;6.788;2023-06-05T13:27:11;19.80;58.70
55634;DHT22;41504;53.162;6.788;2023-06-05T13:29:37;19.70;59.70
55634;DHT22;41504;53.162;6.788;2023-06-05T13:32:03;19.80;59.20
55634;DHT22;41504;53.162;6.788;2023-06-05T13:34:28;19.90;58.60
55634;DHT22;41504;53.162;6.788;2023-06-05T13:36:54;19.90;58.90
55634;DHT22;41504;53.162;6.788;2023-06-05T13:39:20;19.80;58.80
55634;DHT22;41504;53.162;6.788;2023-06-05T13:41:49;19.70;59.10
55634;DHT22;41504;53.162;6.788;2023-06-05T13:44:14;19.60;59.30
55634;DHT22;41504;53.162;6.788;2023-06-05T13:46:40;19.70;59.80
55634;DHT22;41504;53.162;6.788;2023-06-05T13:49:11;19.70;59.60
55634;DHT22;41504;53.162;6.788;2023-06-05T13:51:37;19.80;59.60
55634;DHT22;41504;53.162;6.788;2023-06-05T13:54:07;20.10;59.00
55634;DHT22;41504;53.162;6.788;2023-06-05T13:56:35;20.20;59.10
55634;DHT22;41504;53.162;6.788;2023-06-05T13:59:01;20.50;58.90
55634;DHT22;41504;53.162;6.788;2023-06-05T14:01:26;20.60;58.50
55634;DHT22;41504;53.162;6.788;2023-06-05T14:03:52;20.80;57.90
55634;DHT22;41504;53.162;6.788;2023-06-05T14:06:18;20.90;57.70
55634;DHT22;41504;53.162;6.788;2023-06-05T14:08:44;21.10;57.20
55634;DHT22;41504;53.162;6.788;2023-06-05T14:11:10;20.90;56.80
55634;DHT22;41504;53.162;6.788;2023-06-05T14:13:36;20.80;57.50
55634;DHT22;41504;53.162;6.788;2023-06-05T14:16:02;20.80;57.40
55634;DHT22;41504;53.162;6.788;2023-06-05T14:18:29;20.80;57.20
55634;DHT22;41504;53.162;6.788;2023-06-05T14:20:55;20.80;56.70
55634;DHT22;41504;53.162;6.788;2023-06-05T14:23:21;20.60;57.40
55634;DHT22;41504;53.162;6.788;2023-06-05T14:25:52;20.40;57.90
55634;DHT22;41504;53.162;6.788;2023-06-05T14:28:18;20.30;58.00
55634;DHT22;41504;53.162;6.788;2023-06-05T14:30:46;20.20;58.30
55634;DHT22;41504;53.162;6.788;2023-06-05T14:33:11;20.20;58.10
55634;DHT22;41504;53.162;6.788;2023-06-05T14:35:37;20.20;58.30
55634;DHT22;41504;53.162;6.788;2023-06-05T14:38:03;20.10;58.50
55634;DHT22;41504;53.162;6.788;2023-06-05T14:40:31;20.20;59.00
55634;DHT22;41504;53.162;6.788;2023-06-05T14:42:58;20.50;58.00
55634;DHT22;41504;53.162;6.788;2023-06-05T14:45:25;20.40;57.10
55634;DHT22;41504;53.162;6.788;2023-06-05T14:47:50;20.30;57.70
55634;DHT22;41504;53.162;6.788;2023-06-05T14:50:16;20.30;57.70
55634;DHT22;41504;53.162;6.788;2023-06-05T14:52:42;20.20;57.90
55634;DHT22;41504;53.162;6.788;2023-06-05T14:55:10;20.20;58.10
55634;DHT22;41504;53.162;6.788;2023-06-05T14:57:38;20.30;58.50
55634;DHT22;41504;53.162;6.788;2023-06-05T15:00:05;20.30;58.30
55634;DHT22;41504;53.162;6.788;2023-06-05T15:02:33;20.30;57.80
55634;DHT22;41504;53.162;6.788;2023-06-05T15:05:04;20.20;58.00
55634;DHT22;41504;53.162;6.788;2023-06-05T15:07:40;20.00;58.10
55634;DHT22;41504;53.162;6.788;2023-06-05T15:10:10;20.00;58.90
55634;DHT22;41504;53.162;6.788;2023-06-05T15:12:38;20.00;58.80
55634;DHT22;41504;53.162;6.788;2023-06-05T15:15:07;20.10;58.50
55634;DHT22;41504;53.162;6.788;2023-06-05T15:17:34;20.20;58.70
55634;DHT22;41504;53.162;6.788;2023-06-05T15:19:59;20.40;58.50
55634;DHT22;41504;53.162;6.788;2023-06-05T15:22:25;20.40;57.70
55634;DHT22;41504;53.162;6.788;2023-06-05T15:24:51;20.40;57.90
55634;DHT22;41504;53.162;6.788;2023-06-05T15:27:17;20.40;57.90
55634;DHT22;41504;53.162;6.788;2023-06-05T15:29:42;20.30;57.60
55634;DHT22;41504;53.162;6.788;2023-06-05T15:32:11;20.20;57.50
55634;DHT22;41504;53.162;6.788;2023-06-05T15:34:37;19.90;57.80
55634;DHT22;41504;53.162;6.788;2023-06-05T15:37:06;19.60;58.40
55634;DHT22;41504;53.162;6.788;2023-06-05T15:39:31;19.40;58.90
55634;DHT22;41504;53.162;6.788;2023-06-05T15:41:58;19.20;59.90
55634;DHT22;41504;53.162;6.788;2023-06-05T15:44:23;19.10;60.20
55634;DHT22;41504;53.162;6.788;2023-06-05T15:46:49;19.10;60.50
55634;DHT22;41504;53.162;6.788;2023-06-05T15:49:15;19.20;60.80
55634;DHT22;41504;53.162;6.788;2023-06-05T15:51:40;19.40;60.50
55634;DHT22;41504;53.162;6.788;2023-06-05T15:54:06;19.50;60.30
55634;DHT22;41504;53.162;6.788;2023-06-05T15:56:33;19.70;60.10